Time;durP1;ratioP1;P1;durP2;ratioP2;P2;SDS_P1;SDS_P2;PMS_P1;PMS_P2;Temp;Humidity;BMP_temperature;BMP_pressure;BME280_temperature;BME280_humidity;BME280_pressure;Samples;Min_cycle;Max_cycle;Signal;HPM_P1;HPM_P2
2022/04/19 00:00:34;;;;;;;3.80;2.73;;;;;;;;;;5040526;28;20497;-83
2022/04/19 00:03:02;;;;;;;3.63;2.40;;;;;;;;;;5039838;28;20402;-83
2022/04/19 00:05:28;;;;;;;2.77;2.20;;;;;;;;;;5038753;28;20517;-84
2022/04/19 00:07:54;;;;;;;2.70;2.00;;;;;;;;;;5039096;28;20485;-83
2022/04/19 00:10:20;;;;;;;3.00;2.63;;;;;;;;;;5038957;28;20750;-83
2022/04/19 00:12:47;;;;;;;4.40;2.80;;;;;;;;;;5039532;28;20489;-83
2022/04/19 00:15:15;;;;;;;4.60;2.50;;;;;;;;;;5038555;28;20419;-83
2022/04/19 00:17:41;;;;;;;3.57;2.30;;;;;;;;;;5038562;28;20399;-83
2022/04/19 00:20:07;;;;;;;3.60;2.73;;;;;;;;;;5040385;28;20433;-83
2022/04/19 00:22:33;;;;;;;3.97;2.40;;;;;;;;;;5039319;28;20456;-83
2022/04/19 00:25:00;;;;;;;5.17;2.30;;;;;;;;;;5039970;28;20438;-83
2022/04/19 00:27:26;;;;;;;6.80;3.33;;;;;;;;;;5038818;28;20410;-83
2022/04/19 00:29:53;;;;;;;4.20;2.33;;;;;;;;;;5039823;28;20450;-81
2022/04/19 00:32:20;;;;;;;4.63;2.83;;;;;;;;;;5020409;28;20418;-82
2022/04/19 00:34:46;;;;;;;3.03;2.37;;;;;;;;;;5039150;28;20426;-83
2022/04/19 00:37:13;;;;;;;3.63;2.30;;;;;;;;;;5021025;28;20414;-82
2022/04/19 00:39:39;;;;;;;4.37;2.37;;;;;;;;;;5038685;28;20494;-83
2022/04/19 00:42:07;;;;;;;3.50;2.23;;;;;;;;;;5039463;28;20436;-82
2022/04/19 00:44:37;;;;;;;4.20;2.20;;;;;;;;;;5021492;28;20445;-83
2022/04/19 00:47:05;;;;;;;3.10;2.33;;;;;;;;;;5039603;28;20505;-82
2022/04/19 00:49:31;;;;;;;2.90;2.23;;;;;;;;;;5040477;28;20532;-82
2022/04/19 00:51:57;;;;;;;3.97;2.40;;;;;;;;;;5039191;28;20418;-83
2022/04/19 00:54:23;;;;;;;3.73;2.60;;;;;;;;;;5039180;28;20524;-82
2022/04/19 00:56:49;;;;;;;9.07;3.40;;;;;;;;;;5043876;28;20410;-81
2022/04/19 00:59:16;;;;;;;5.53;3.50;;;;;;;;;;5051634;28;20406;-81
2022/04/19 01:01:42;;;;;;;4.60;2.80;;;;;;;;;;5034295;28;20461;-80
2022/04/19 01:04:08;;;;;;;5.70;2.83;;;;;;;;;;5051212;28;20482;-81
2022/04/19 01:06:34;;;;;;;3.90;2.13;;;;;;;;;;5033963;28;20764;-80
2022/04/19 01:09:00;;;;;;;3.93;2.43;;;;;;;;;;5050597;28;20518;-80
2022/04/19 01:14:12;;;;;;;6.07;3.17;;;;;;;;;;5049679;28;20464;-81
2022/04/19 01:16:40;;;;;;;4.10;2.63;;;;;;;;;;5027475;28;20422;-81
2022/04/19 01:19:09;;;;;;;5.73;3.37;;;;;;;;;;5031744;28;20511;-81
2022/04/19 01:21:48;;;;;;;7.40;3.73;;;;;;;;;;5024846;28;20465;-81
2022/04/19 01:24:18;;;;;;;6.77;3.80;;;;;;;;;;5028113;28;20426;-80
2022/04/19 01:26:44;;;;;;;7.20;3.40;;;;;;;;;;5025136;28;20411;-80
2022/04/19 01:29:11;;;;;;;4.03;2.83;;;;;;;;;;5029877;28;20549;-81
2022/04/19 01:31:38;;;;;;;5.83;3.27;;;;;;;;;;5030422;28;20482;-80
2022/04/19 01:34:04;;;;;;;6.47;3.70;;;;;;;;;;5032627;28;20437;-81
2022/04/19 01:36:30;;;;;;;5.17;3.33;;;;;;;;;;5032714;28;20417;-79
2022/04/19 01:38:56;;;;;;;7.47;4.07;;;;;;;;;;5035468;28;20404;-77
2022/04/19 01:41:22;;;;;;;8.40;3.47;;;;;;;;;;5033297;28;20410;-79
2022/04/19 01:43:50;;;;;;;5.30;2.80;;;;;;;;;;5033834;28;20426;-80
2022/04/19 01:46:17;;;;;;;5.40;3.80;;;;;;;;;;5032597;28;20411;-82
2022/04/19 01:48:43;;;;;;;4.47;3.37;;;;;;;;;;5032521;28;20526;-81
2022/04/19 01:51:10;;;;;;;4.77;3.13;;;;;;;;;;5031996;28;20457;-80
2022/04/19 01:53:36;;;;;;;4.87;2.77;;;;;;;;;;5033926;28;20439;-80
2022/04/19 01:56:02;;;;;;;4.37;3.20;;;;;;;;;;5032887;28;20869;-80
2022/04/19 01:58:28;;;;;;;4.07;3.17;;;;;;;;;;5032846;28;20410;-82
2022/04/19 02:00:54;;;;;;;6.07;3.20;;;;;;;;;;5031997;28;20439;-79
2022/04/19 02:03:20;;;;;;;3.30;2.73;;;;;;;;;;5033591;28;20407;-80
2022/04/19 02:05:46;;;;;;;5.17;3.00;;;;;;;;;;5029298;28;20414;-78
2022/04/19 02:08:12;;;;;;;4.97;2.03;;;;;;;;;;5024087;28;20528;-82
2022/04/19 02:10:38;;;;;;;5.80;2.10;;;;;;;;;;5023439;28;20400;-82
2022/04/19 02:13:04;;;;;;;3.50;2.60;;;;;;;;;;5025025;28;20427;-79
2022/04/19 02:15:31;;;;;;;2.93;2.07;;;;;;;;;;5030833;28;20423;-79
2022/04/19 02:17:57;;;;;;;3.87;2.60;;;;;;;;;;5025798;28;20481;-82
2022/04/19 02:20:23;;;;;;;3.70;2.40;;;;;;;;;;5028995;28;20430;-79
2022/04/19 02:22:49;;;;;;;2.80;2.07;;;;;;;;;;5030636;28;20468;-81
2022/04/19 02:25:17;;;;;;;4.10;2.37;;;;;;;;;;5030913;28;20452;-80
2022/04/19 02:27:43;;;;;;;3.03;2.30;;;;;;;;;;5031468;28;20435;-81
2022/04/19 02:30:13;;;;;;;3.47;2.90;;;;;;;;;;5029748;28;20563;-81
2022/04/19 02:32:40;;;;;;;4.17;2.53;;;;;;;;;;5030764;28;20388;-80
2022/04/19 02:35:07;;;;;;;3.93;2.63;;;;;;;;;;5027158;28;20792;-81
2022/04/19 02:37:33;;;;;;;4.47;2.30;;;;;;;;;;5024872;28;20769;-82
2022/04/19 02:39:59;;;;;;;4.00;2.80;;;;;;;;;;5027095;28;20427;-80
2022/04/19 02:42:25;;;;;;;3.17;2.33;;;;;;;;;;5027738;28;20424;-80
2022/04/19 02:44:51;;;;;;;3.30;2.40;;;;;;;;;;5023865;28;20431;-82
2022/04/19 02:47:17;;;;;;;2.90;2.37;;;;;;;;;;5019886;28;20420;-82
2022/04/19 02:49:46;;;;;;;5.07;2.80;;;;;;;;;;5020958;28;20450;-82
2022/04/19 02:52:12;;;;;;;2.97;2.20;;;;;;;;;;5022191;28;20410;-82
2022/04/19 02:54:38;;;;;;;2.50;1.70;;;;;;;;;;5021768;28;21018;-82
2022/04/19 02:57:05;;;;;;;4.10;2.87;;;;;;;;;;5019914;28;20431;-82
2022/04/19 02:59:31;;;;;;;6.23;3.43;;;;;;;;;;5020740;28;20415;-82
2022/04/19 03:01:57;;;;;;;3.97;2.40;;;;;;;;;;5020654;28;20447;-82
2022/04/19 03:04:23;;;;;;;4.20;2.60;;;;;;;;;;5020765;28;20434;-82
2022/04/19 03:06:49;;;;;;;3.47;2.50;;;;;;;;;;5019043;28;20412;-82
2022/04/19 03:09:15;;;;;;;4.53;2.50;;;;;;;;;;5019957;28;20529;-82
2022/04/19 03:11:41;;;;;;;3.27;2.47;;;;;;;;;;5018977;28;20416;-82
2022/04/19 03:14:08;;;;;;;4.30;2.27;;;;;;;;;;5020096;28;20794;-82
2022/04/19 03:16:34;;;;;;;3.50;2.90;;;;;;;;;;5018614;28;20407;-82
2022/04/19 03:19:00;;;;;;;4.00;2.53;;;;;;;;;;5020071;28;20828;-82
2022/04/19 03:21:26;;;;;;;6.03;2.40;;;;;;;;;;5020307;28;20411;-82
2022/04/19 03:29:22;;;;;;;4.53;2.73;;;;;;;;;;5019887;28;20861;-82
2022/04/19 03:31:48;;;;;;;3.67;2.10;;;;;;;;;;5020017;28;20407;-85
2022/04/19 03:34:14;;;;;;;4.17;2.43;;;;;;;;;;5019936;28;20445;-82
2022/04/19 03:36:40;;;;;;;4.33;2.50;;;;;;;;;;5019871;28;20772;-82
2022/04/19 03:39:06;;;;;;;4.00;2.50;;;;;;;;;;5019825;28;20422;-82
2022/04/19 03:41:32;;;;;;;3.40;2.30;;;;;;;;;;5019018;28;20486;-83
2022/04/19 03:43:58;;;;;;;2.70;2.07;;;;;;;;;;5030208;28;20430;-81
2022/04/19 03:46:24;;;;;;;3.57;2.07;;;;;;;;;;5022017;28;20429;-82
2022/04/19 03:48:50;;;;;;;4.43;2.70;;;;;;;;;;5039402;28;20545;-81
2022/04/19 03:51:16;;;;;;;2.57;1.93;;;;;;;;;;5038994;28;20439;-83
2022/04/19 03:53:42;;;;;;;3.27;2.10;;;;;;;;;;5039736;28;20431;-83
2022/04/19 03:56:09;;;;;;;3.80;2.80;;;;;;;;;;5047041;28;20410;-83
2022/04/19 03:58:35;;;;;;;4.70;2.50;;;;;;;;;;5044036;28;20768;-83
2022/04/19 04:01:01;;;;;;;3.93;2.40;;;;;;;;;;5042263;28;20531;-84
2022/04/19 04:03:27;;;;;;;3.90;2.37;;;;;;;;;;5040422;28;20411;-83
2022/04/19 04:05:54;;;;;;;4.23;2.70;;;;;;;;;;5040964;28;20498;-83
2022/04/19 04:08:20;;;;;;;3.67;2.40;;;;;;;;;;5040152;28;20462;-83
2022/04/19 04:10:46;;;;;;;3.37;2.57;;;;;;;;;;5044286;28;20399;-83
2022/04/19 04:13:12;;;;;;;6.57;2.10;;;;;;;;;;5054532;28;20448;-82
2022/04/19 04:15:38;;;;;;;3.83;1.93;;;;;;;;;;5048006;28;20448;-83
2022/04/19 04:18:04;;;;;;;3.83;2.33;;;;;;;;;;5044518;28;20418;-83
2022/04/19 04:20:30;;;;;;;3.90;2.50;;;;;;;;;;5040879;28;20410;-82
2022/04/19 04:22:56;;;;;;;5.97;2.70;;;;;;;;;;5039513;28;20409;-83
2022/04/19 04:25:22;;;;;;;2.50;2.20;;;;;;;;;;5037487;28;20421;-82
2022/04/19 04:27:48;;;;;;;4.97;2.20;;;;;;;;;;5019987;28;20782;-83
2022/04/19 04:30:14;;;;;;;4.37;2.40;;;;;;;;;;5037640;28;20543;-83
2022/04/19 04:32:40;;;;;;;4.60;2.73;;;;;;;;;;5037523;28;20468;-83
2022/04/19 04:35:08;;;;;;;2.93;2.20;;;;;;;;;;5039424;28;20865;-82
2022/04/19 04:37:34;;;;;;;8.47;3.50;;;;;;;;;;5040745;28;20421;-82
2022/04/19 04:40:00;;;;;;;2.53;1.87;;;;;;;;;;5039504;28;20406;-83
2022/04/19 04:42:26;;;;;;;2.90;2.47;;;;;;;;;;5037586;28;20407;-83
2022/04/19 04:44:52;;;;;;;4.37;2.53;;;;;;;;;;5038264;28;20422;-83
2022/04/19 04:50:03;;;;;;;3.97;2.43;;;;;;;;;;5037910;28;20525;-84
2022/04/19 04:52:29;;;;;;;3.17;2.07;;;;;;;;;;5039102;28;20421;-82
2022/04/19 04:54:55;;;;;;;4.03;2.37;;;;;;;;;;5059309;22;20796;-86
2022/04/19 04:57:21;;;;;;;2.67;1.80;;;;;;;;;;5024221;28;20915;-86
2022/04/19 04:59:48;;;;;;;9.70;2.57;;;;;;;;;;5025041;28;20403;-86
2022/04/19 05:02:14;;;;;;;2.90;2.20;;;;;;;;;;5025282;28;20407;-86
2022/04/19 05:04:40;;;;;;;2.87;2.00;;;;;;;;;;5008377;28;20438;-86
2022/04/19 05:07:07;;;;;;;3.70;2.10;;;;;;;;;;5010288;28;20400;-86
2022/04/19 05:09:33;;;;;;;6.10;2.27;;;;;;;;;;4991252;28;20459;-86
2022/04/19 05:11:59;;;;;;;5.43;2.20;;;;;;;;;;5008611;28;20404;-85
2022/04/19 05:14:25;;;;;;;5.40;2.27;;;;;;;;;;5013614;28;20567;-85
2022/04/19 05:16:51;;;;;;;6.30;3.20;;;;;;;;;;4994690;28;20408;-86
2022/04/19 05:19:18;;;;;;;4.50;2.57;;;;;;;;;;5012196;28;20412;-84
2022/04/19 05:21:44;;;;;;;5.57;2.57;;;;;;;;;;4996225;28;20420;-86
2022/04/19 05:24:10;;;;;;;8.20;2.63;;;;;;;;;;5011575;28;20431;-85
2022/04/19 05:26:36;;;;;;;4.70;2.50;;;;;;;;;;5011188;28;20392;-86
2022/04/19 05:29:03;;;;;;;4.80;2.47;;;;;;;;;;4993156;28;20454;-86
2022/04/19 05:31:30;;;;;;;3.87;2.17;;;;;;;;;;5010183;28;20416;-86
2022/04/19 05:33:56;;;;;;;4.93;2.70;;;;;;;;;;5009571;28;20469;-86
2022/04/19 05:36:23;;;;;;;4.80;2.60;;;;;;;;;;5009647;28;20463;-85
2022/04/19 05:38:52;;;;;;;2.77;1.93;;;;;;;;;;5010116;28;20439;-86
2022/04/19 05:41:19;;;;;;;6.00;2.10;;;;;;;;;;5010464;28;20419;-86
2022/04/19 05:43:46;;;;;;;6.77;2.73;;;;;;;;;;4993657;28;20420;-86
2022/04/19 05:46:12;;;;;;;2.30;2.10;;;;;;;;;;5010710;28;20404;-85
2022/04/19 05:48:38;;;;;;;3.23;2.20;;;;;;;;;;5010125;28;20440;-86
2022/04/19 05:51:04;;;;;;;4.00;2.83;;;;;;;;;;5010557;28;20484;-86
2022/04/19 05:53:31;;;;;;;2.77;1.93;;;;;;;;;;5010666;28;20424;-86
2022/04/19 05:55:57;;;;;;;7.00;2.40;;;;;;;;;;5009072;28;20476;-86
2022/04/19 05:58:23;;;;;;;4.93;2.30;;;;;;;;;;5011067;28;20408;-86
2022/04/19 06:00:49;;;;;;;5.43;2.27;;;;;;;;;;5011371;28;20481;-85
2022/04/19 06:06:19;;;;;;;3.07;2.17;;;;;;;;;;4933338;29;20444;-86
2022/04/19 06:08:45;;;;;;;6.30;2.60;;;;;;;;;;4933218;29;20472;-86
2022/04/19 06:11:12;;;;;;;3.80;2.60;;;;;;;;;;4969685;28;20412;-85
2022/04/19 06:13:38;;;;;;;3.60;2.60;;;;;;;;;;5007087;28;20412;-84
2022/04/19 06:16:05;;;;;;;4.17;2.90;;;;;;;;;;5009032;28;20428;-86
2022/04/19 06:18:32;;;;;;;5.10;2.80;;;;;;;;;;4992663;28;20469;-86
2022/04/19 06:20:58;;;;;;;4.33;2.97;;;;;;;;;;5009960;28;20404;-86
2022/04/19 06:23:25;;;;;;;4.80;2.90;;;;;;;;;;5010659;28;20404;-84
2022/04/19 06:25:51;;;;;;;5.83;3.10;;;;;;;;;;5013726;28;20483;-85
2022/04/19 06:28:17;;;;;;;3.80;2.50;;;;;;;;;;5013167;28;20862;-85
2022/04/19 06:30:44;;;;;;;3.63;2.70;;;;;;;;;;5013025;28;20424;-85
2022/04/19 06:33:10;;;;;;;5.40;2.97;;;;;;;;;;5012580;28;20424;-87
2022/04/19 06:35:36;;;;;;;7.53;2.80;;;;;;;;;;4996519;28;20946;-86
2022/04/19 06:38:03;;;;;;;3.70;3.00;;;;;;;;;;5013303;28;20422;-86
2022/04/19 06:40:29;;;;;;;4.33;2.30;;;;;;;;;;5012758;28;20455;-86
2022/04/19 06:42:57;;;;;;;5.30;2.80;;;;;;;;;;5010945;28;20450;-86
2022/04/19 06:45:23;;;;;;;4.10;2.70;;;;;;;;;;5010025;28;20491;-86
2022/04/19 06:48:16;;;;;;;8.23;3.00;;;;;;;;;;5010207;28;20791;-86
2022/04/19 06:50:42;;;;;;;5.57;2.63;;;;;;;;;;5015599;28;20428;-86
2022/04/19 06:53:09;;;;;;;3.60;2.43;;;;;;;;;;5014869;28;20393;-85
2022/04/19 06:55:35;;;;;;;4.00;3.00;;;;;;;;;;5013015;28;20517;-86
2022/04/19 06:58:01;;;;;;;3.43;2.63;;;;;;;;;;4992786;28;20503;-86
2022/04/19 07:00:27;;;;;;;4.83;2.50;;;;;;;;;;5011267;28;20443;-85
2022/04/19 07:02:53;;;;;;;3.50;2.60;;;;;;;;;;5010242;28;20411;-85
2022/04/19 07:05:19;;;;;;;2.80;2.27;;;;;;;;;;5009693;28;20458;-86
2022/04/19 07:07:45;;;;;;;4.80;3.53;;;;;;;;;;5010580;28;20491;-85
2022/04/19 07:10:12;;;;;;;3.83;2.30;;;;;;;;;;4994077;28;20464;-86
2022/04/19 07:12:38;;;;;;;5.03;2.73;;;;;;;;;;5010059;28;20409;-86
2022/04/19 07:15:04;;;;;;;5.63;3.13;;;;;;;;;;5010295;28;20904;-86
2022/04/19 07:17:30;;;;;;;5.40;3.27;;;;;;;;;;4992967;28;20420;-86
2022/04/19 07:28:15;;;;;;;5.60;3.10;;;;;;;;;;5011313;28;20514;-86
2022/04/19 07:30:41;;;;;;;6.50;3.67;;;;;;;;;;5010331;28;20448;-86
2022/04/19 07:33:07;;;;;;;8.13;3.20;;;;;;;;;;5011381;28;20881;-86
2022/04/19 07:35:34;;;;;;;4.20;2.87;;;;;;;;;;4995203;28;20441;-86
2022/04/19 07:38:00;;;;;;;6.10;3.10;;;;;;;;;;5011600;28;20893;-86
2022/04/19 07:40:26;;;;;;;8.60;3.23;;;;;;;;;;4995217;28;20420;-86
2022/04/19 07:42:52;;;;;;;8.13;3.80;;;;;;;;;;5011049;28;20415;-85
2022/04/19 07:45:18;;;;;;;8.90;3.10;;;;;;;;;;5008322;28;20412;-86
2022/04/19 07:47:44;;;;;;;5.90;3.77;;;;;;;;;;5007943;28;20418;-85
2022/04/19 07:50:10;;;;;;;12.60;4.17;;;;;;;;;;4990430;28;20864;-84
2022/04/19 07:52:36;;;;;;;6.10;3.77;;;;;;;;;;5006390;28;20975;-86
2022/04/19 07:55:02;;;;;;;6.43;4.50;;;;;;;;;;4990608;28;20488;-85
2022/04/19 07:57:28;;;;;;;5.73;3.60;;;;;;;;;;4987696;28;20420;-86
2022/04/19 07:59:54;;;;;;;3.83;2.80;;;;;;;;;;5005008;28;20435;-86
2022/04/19 08:02:21;;;;;;;8.70;3.93;;;;;;;;;;5004798;28;20464;-84
2022/04/19 08:04:47;;;;;;;5.10;3.90;;;;;;;;;;4987084;28;20509;-85
2022/04/19 08:07:13;;;;;;;7.50;3.37;;;;;;;;;;5007347;28;20412;-85
2022/04/19 08:09:39;;;;;;;5.40;3.20;;;;;;;;;;5014378;28;20447;-85
2022/04/19 08:12:06;;;;;;;4.90;3.50;;;;;;;;;;4991375;28;20509;-85
2022/04/19 08:14:32;;;;;;;11.93;3.90;;;;;;;;;;5013911;28;20434;-86
2022/04/19 08:16:58;;;;;;;5.97;3.40;;;;;;;;;;5010006;28;20401;-86
2022/04/19 08:19:24;;;;;;;5.87;3.67;;;;;;;;;;5009405;28;20427;-86
2022/04/19 08:21:51;;;;;;;7.43;3.57;;;;;;;;;;5010419;28;20412;-86
2022/04/19 08:24:18;;;;;;;4.83;3.43;;;;;;;;;;5008313;28;20428;-85
2022/04/19 08:26:44;;;;;;;8.43;4.27;;;;;;;;;;5007754;28;20428;-86
2022/04/19 08:29:11;;;;;;;6.43;4.10;;;;;;;;;;4992145;28;20516;-86
2022/04/19 08:31:37;;;;;;;4.30;3.57;;;;;;;;;;4991977;28;20420;-86
2022/04/19 08:34:03;;;;;;;4.53;3.50;;;;;;;;;;5008409;28;20428;-87
2022/04/19 08:36:30;;;;;;;4.77;3.77;;;;;;;;;;5007857;28;20454;-86
2022/04/19 08:38:56;;;;;;;5.23;4.00;;;;;;;;;;5009110;28;20458;-85
2022/04/19 08:41:22;;;;;;;8.90;4.10;;;;;;;;;;5010331;28;20404;-85
2022/04/19 08:43:48;;;;;;;5.13;4.03;;;;;;;;;;4992785;28;20420;-85
2022/04/19 08:46:14;;;;;;;5.23;3.77;;;;;;;;;;5011185;28;20415;-85
2022/04/19 08:48:41;;;;;;;10.40;5.40;;;;;;;;;;5011294;28;20444;-85
2022/04/19 08:51:10;;;;;;;9.33;4.47;;;;;;;;;;5010858;28;20404;-84
2022/04/19 08:59:10;;;;;;;6.23;4.17;;;;;;;;;;5009998;28;20780;-85
2022/04/19 09:01:36;;;;;;;5.80;4.27;;;;;;;;;;5011526;28;20415;-85
2022/04/19 09:04:05;;;;;;;9.87;4.40;;;;;;;;;;5010193;28;20861;-86
2022/04/19 09:06:54;;;;;;;6.47;4.40;;;;;;;;;;4989459;28;20400;-85
2022/04/19 09:09:23;;;;;;;7.10;4.20;;;;;;;;;;5010903;28;20455;-85
2022/04/19 09:11:50;;;;;;;6.57;4.70;;;;;;;;;;5011362;28;20404;-86
2022/04/19 09:14:17;;;;;;;5.80;4.40;;;;;;;;;;5020090;28;20501;-86
2022/04/19 09:16:43;;;;;;;5.80;4.30;;;;;;;;;;5029027;28;20947;-86
2022/04/19 09:19:09;;;;;;;7.93;4.80;;;;;;;;;;5029584;28;20470;-86
2022/04/19 09:21:37;;;;;;;8.97;5.00;;;;;;;;;;5029851;28;20411;-84
2022/04/19 09:24:15;;;;;;;10.43;5.23;;;;;;;;;;5033452;28;20424;-85
2022/04/19 09:26:42;;;;;;;8.90;5.83;;;;;;;;;;5033464;28;20390;-85
2022/04/19 09:29:24;;;;;;;11.53;5.10;;;;;;;;;;5032736;28;20426;-86
2022/04/19 09:31:51;;;;;;;7.13;4.70;;;;;;;;;;5030548;28;20414;-86
2022/04/19 09:34:28;;;;;;;7.13;5.20;;;;;;;;;;5020965;28;20498;-84
2022/04/19 09:37:10;;;;;;;9.27;5.53;;;;;;;;;;5026873;28;20463;-86
2022/04/19 09:39:37;;;;;;;7.40;5.47;;;;;;;;;;5033101;28;20384;-86
2022/04/19 09:42:11;;;;;;;5.93;4.83;;;;;;;;;;5034540;28;20398;-85
2022/04/19 09:44:44;;;;;;;7.60;5.53;;;;;;;;;;5033791;28;20415;-86
2022/04/19 09:47:14;;;;;;;7.33;5.40;;;;;;;;;;5035106;28;20467;-85
2022/04/19 09:49:55;;;;;;;10.03;6.27;;;;;;;;;;5023015;28;20459;-85
2022/04/19 09:52:24;;;;;;;9.13;6.17;;;;;;;;;;5040431;28;20407;-85
2022/04/19 09:55:04;;;;;;;6.63;5.03;;;;;;;;;;5039916;28;20506;-84
2022/04/19 09:57:31;;;;;;;6.93;5.77;;;;;;;;;;5040270;28;20490;-84
2022/04/19 09:59:59;;;;;;;18.60;5.90;;;;;;;;;;5040570;28;20411;-84
2022/04/19 10:10:42;;;;;;;8.20;5.60;;;;;;;;;;5039284;28;20430;-85
2022/04/19 10:13:08;;;;;;;12.57;5.80;;;;;;;;;;5038815;28;20396;-85
2022/04/19 10:15:35;;;;;;;8.67;5.60;;;;;;;;;;5038973;28;20404;-85
2022/04/19 10:18:03;;;;;;;8.00;5.40;;;;;;;;;;5039260;28;20473;-86
2022/04/19 10:20:33;;;;;;;7.43;5.40;;;;;;;;;;5039431;28;20388;-86
2022/04/19 10:23:02;;;;;;;7.70;5.80;;;;;;;;;;5038480;28;20411;-86
2022/04/19 10:25:46;;;;;;;8.00;5.73;;;;;;;;;;5038943;28;20446;-86
2022/04/19 10:28:16;;;;;;;8.33;5.60;;;;;;;;;;5038844;28;20377;-86
2022/04/19 10:30:52;;;;;;;10.03;6.00;;;;;;;;;;5038134;28;20428;-87
2022/04/19 10:33:37;;;;;;;7.93;5.47;;;;;;;;;;5037929;28;20415;-84
2022/04/19 10:36:30;;;;;;;7.87;5.70;;;;;;;;;;5039890;28;20437;-87
2022/04/19 10:39:08;;;;;;;7.67;5.23;;;;;;;;;;5036839;28;20441;-85
2022/04/19 10:41:53;;;;;;;9.43;6.43;;;;;;;;;;5039075;28;20447;-85
2022/04/19 10:44:20;;;;;;;8.63;5.73;;;;;;;;;;5039509;28;20414;-86
2022/04/19 10:46:46;;;;;;;8.30;5.90;;;;;;;;;;5040253;28;20404;-85
2022/04/19 10:49:24;;;;;;;8.27;5.70;;;;;;;;;;5039826;28;20515;-85
2022/04/19 10:51:52;;;;;;;9.40;5.87;;;;;;;;;;5039344;28;20415;-86
2022/04/19 10:58:05;;;;;;;7.47;5.77;;;;;;;;;;5058300;28;20480;-84
2022/04/19 11:00:23;;;;;;;7.23;4.83;;;;;;;;;;5061669;28;20396;-84
2022/04/19 11:03:02;;;;;;;8.63;6.53;;;;;;;;;;5045349;28;20406;-83
2022/04/19 11:05:41;;;;;;;7.73;5.80;;;;;;;;;;5062315;28;20441;-84
2022/04/19 11:08:25;;;;;;;6.93;5.10;;;;;;;;;;5064280;28;20381;-83
2022/04/19 11:10:51;;;;;;;11.57;6.57;;;;;;;;;;5068582;28;20405;-83
2022/04/19 11:13:21;;;;;;;6.97;5.87;;;;;;;;;;5073056;28;20413;-82
2022/04/19 11:16:13;;;;;;;7.20;5.47;;;;;;;;;;5065381;28;20425;-84
2022/04/19 11:18:39;;;;;;;10.03;5.83;;;;;;;;;;5064176;28;20411;-83
2022/04/19 11:21:12;;;;;;;9.43;5.70;;;;;;;;;;5063266;28;20907;-83
2022/04/19 11:23:45;;;;;;;7.47;6.00;;;;;;;;;;5063163;28;20414;-82
2022/04/19 11:26:37;;;;;;;7.27;5.40;;;;;;;;;;5062875;28;20504;-84
2022/04/19 11:29:09;;;;;;;7.27;5.20;;;;;;;;;;5058847;28;20480;-84
2022/04/19 11:31:45;;;;;;;9.23;6.17;;;;;;;;;;5062540;28;20413;-84
2022/04/19 11:34:11;;;;;;;9.80;6.03;;;;;;;;;;5069735;28;20405;-83
2022/04/19 11:36:37;;;;;;;7.90;5.80;;;;;;;;;;5054570;28;20426;-83
2022/04/19 11:39:04;;;;;;;10.83;5.67;;;;;;;;;;5077827;28;20417;-82
2022/04/19 11:46:51;;;;;;;7.30;5.17;;;;;;;;;;5072340;28;20386;-82
2022/04/19 11:49:17;;;;;;;7.50;5.87;;;;;;;;;;5071531;28;20468;-83
2022/04/19 11:51:51;;;;;;;7.73;5.57;;;;;;;;;;5069721;28;20405;-83
2022/04/19 11:54:22;;;;;;;5.80;5.10;;;;;;;;;;5066980;28;20408;-83
2022/04/19 11:56:55;;;;;;;7.63;5.30;;;;;;;;;;5067403;28;20430;-84
2022/04/19 11:59:27;;;;;;;9.00;6.33;;;;;;;;;;5065123;28;20955;-84
2022/04/19 12:01:54;;;;;;;6.03;5.23;;;;;;;;;;5065567;28;20398;-84
2022/04/19 12:04:20;;;;;;;6.20;5.40;;;;;;;;;;5069871;28;20937;-83
2022/04/19 12:07:01;;;;;;;6.70;4.97;;;;;;;;;;5071868;28;20424;-83
2022/04/19 12:09:27;;;;;;;7.90;5.57;;;;;;;;;;5071827;28;20572;-82
2022/04/19 12:11:54;;;;;;;7.00;5.73;;;;;;;;;;5072114;28;20440;-83
2022/04/19 12:14:27;;;;;;;7.63;5.50;;;;;;;;;;5072152;28;20398;-83
2022/04/19 12:16:57;;;;;;;7.70;6.17;;;;;;;;;;5071474;28;20390;-84
2022/04/19 12:19:42;;;;;;;6.70;4.63;;;;;;;;;;5069511;28;20408;-83
2022/04/19 12:22:22;;;;;;;9.47;5.67;;;;;;;;;;5070176;28;20794;-83
2022/04/19 12:24:55;;;;;;;6.90;5.70;;;;;;;;;;5069449;28;20474;-84
2022/04/19 12:27:27;;;;;;;6.70;4.93;;;;;;;;;;5068037;28;20424;-83
2022/04/19 12:29:58;;;;;;;9.47;6.50;;;;;;;;;;5071621;28;20449;-83
2022/04/19 12:32:24;;;;;;;8.43;5.80;;;;;;;;;;5070098;28;20436;-83
2022/04/19 12:34:53;;;;;;;6.23;4.73;;;;;;;;;;5071118;28;20421;-83
2022/04/19 12:37:21;;;;;;;7.03;5.60;;;;;;;;;;5070382;28;20409;-83
2022/04/19 12:39:58;;;;;;;6.10;4.87;;;;;;;;;;5069220;28;20467;-83
2022/04/19 12:42:24;;;;;;;6.93;4.83;;;;;;;;;;5067908;28;20397;-82
2022/04/19 12:45:10;;;;;;;6.57;4.97;;;;;;;;;;5067717;28;20434;-82
2022/04/19 12:47:37;;;;;;;6.03;5.00;;;;;;;;;;5069704;28;20406;-82
2022/04/19 12:50:13;;;;;;;10.47;5.47;;;;;;;;;;5066009;28;20538;-84
2022/04/19 12:52:41;;;;;;;6.20;5.13;;;;;;;;;;5070319;28;20749;-83
2022/04/19 12:55:09;;;;;;;5.23;4.73;;;;;;;;;;5063968;28;20850;-84
2022/04/19 12:57:38;;;;;;;6.53;4.93;;;;;;;;;;5061223;28;20433;-84
2022/04/19 13:00:04;;;;;;;9.33;4.80;;;;;;;;;;5061996;28;20451;-84
2022/04/19 13:02:31;;;;;;;6.00;4.37;;;;;;;;;;5062231;28;20424;-84
2022/04/19 13:04:57;;;;;;;8.07;5.70;;;;;;;;;;5060785;28;20726;-85
2022/04/19 13:12:59;;;;;;;7.20;4.37;;;;;;;;;;5061637;28;20583;-83
2022/04/19 13:15:25;;;;;;;5.53;4.50;;;;;;;;;;5068271;28;20418;-82
2022/04/19 13:17:51;;;;;;;5.20;4.57;;;;;;;;;;5064205;28;20432;-85
2022/04/19 13:20:17;;;;;;;5.40;4.20;;;;;;;;;;5060322;28;20952;-84
2022/04/19 13:22:43;;;;;;;5.97;5.00;;;;;;;;;;5060116;28;20405;-85
2022/04/19 13:25:09;;;;;;;6.63;4.60;;;;;;;;;;5068877;28;20833;-82
2022/04/19 13:27:36;;;;;;;6.70;4.57;;;;;;;;;;5069433;28;20406;-82
2022/04/19 13:30:05;;;;;;;6.80;4.20;;;;;;;;;;5065656;28;20544;-84
2022/04/19 13:32:32;;;;;;;4.77;3.77;;;;;;;;;;5062460;28;20971;-84
2022/04/19 13:34:58;;;;;;;6.10;3.97;;;;;;;;;;5063242;28;20433;-83
2022/04/19 13:40:09;;;;;;;5.10;4.60;;;;;;;;;;5064104;28;20392;-83
2022/04/19 13:42:35;;;;;;;4.93;3.80;;;;;;;;;;5064078;28;20402;-84
2022/04/19 13:45:01;;;;;;;5.70;4.27;;;;;;;;;;5062611;28;20462;-83
2022/04/19 13:47:28;;;;;;;7.70;4.40;;;;;;;;;;5064073;28;20452;-83
2022/04/19 13:49:54;;;;;;;5.83;4.33;;;;;;;;;;5061983;28;20548;-85
2022/04/19 13:52:20;;;;;;;6.83;4.13;;;;;;;;;;5063628;28;20413;-82
2022/04/19 13:54:46;;;;;;;6.03;4.97;;;;;;;;;;5061823;28;20468;-85
2022/04/19 13:57:12;;;;;;;5.23;4.30;;;;;;;;;;5062015;28;20418;-85
2022/04/19 13:59:38;;;;;;;5.07;3.93;;;;;;;;;;5063499;28;20886;-85
2022/04/19 14:02:04;;;;;;;3.93;3.20;;;;;;;;;;5069445;28;20406;-85
2022/04/19 14:04:30;;;;;;;3.80;3.13;;;;;;;;;;5073397;28;20412;-84
2022/04/19 14:06:57;;;;;;;5.03;4.00;;;;;;;;;;5077656;28;20838;-82
2022/04/19 14:09:23;;;;;;;5.30;3.80;;;;;;;;;;5079586;28;20452;-84
2022/04/19 14:11:49;;;;;;;6.47;4.10;;;;;;;;;;5069264;28;20409;-84
2022/04/19 14:14:15;;;;;;;4.33;3.47;;;;;;;;;;5063347;28;20409;-85
2022/04/19 14:16:41;;;;;;;4.80;2.73;;;;;;;;;;5063896;28;20453;-85
2022/04/19 14:19:07;;;;;;;5.03;2.77;;;;;;;;;;5064037;28;20924;-85
2022/04/19 14:21:33;;;;;;;3.70;2.50;;;;;;;;;;5062228;28;20932;-86
2022/04/19 14:23:59;;;;;;;3.10;2.63;;;;;;;;;;5063147;28;20401;-85
2022/04/19 14:26:26;;;;;;;5.37;2.83;;;;;;;;;;5062556;28;20425;-85
2022/04/19 14:34:21;;;;;;;3.87;1.97;;;;;;;;;;5058494;28;20386;-84
2022/04/19 14:36:47;;;;;;;3.47;2.47;;;;;;;;;;5057239;28;20413;-84
2022/04/19 14:39:13;;;;;;;3.00;2.20;;;;;;;;;;5060481;28;20410;-85
2022/04/19 14:41:39;;;;;;;3.70;2.20;;;;;;;;;;5062871;28;20405;-85
2022/04/19 14:44:05;;;;;;;3.00;1.93;;;;;;;;;;5061769;28;20444;-85
2022/04/19 14:46:32;;;;;;;5.07;2.20;;;;;;;;;;5061609;28;20451;-85
2022/04/19 14:48:58;;;;;;;2.83;1.93;;;;;;;;;;5063072;28;20457;-85
2022/04/19 14:54:09;;;;;;;3.77;2.30;;;;;;;;;;5065838;28;20425;-84
2022/04/19 14:56:35;;;;;;;3.27;2.50;;;;;;;;;;5066191;28;20445;-85
2022/04/19 14:59:01;;;;;;;4.33;2.20;;;;;;;;;;5050087;28;20456;-84
2022/04/19 15:01:27;;;;;;;3.57;2.00;;;;;;;;;;5068528;28;20398;-85
2022/04/19 15:03:53;;;;;;;3.00;1.80;;;;;;;;;;5066993;28;20408;-85
2022/04/19 15:06:20;;;;;;;5.20;2.10;;;;;;;;;;5064183;28;20496;-85
2022/04/19 15:08:46;;;;;;;3.70;2.30;;;;;;;;;;5044525;28;20867;-84
2022/04/19 15:11:13;;;;;;;3.33;2.27;;;;;;;;;;5062244;28;20755;-85
2022/04/19 15:13:39;;;;;;;5.40;2.20;;;;;;;;;;5030857;28;20502;-85
2022/04/19 15:16:05;;;;;;;3.27;2.30;;;;;;;;;;5042083;28;20430;-85
2022/04/19 15:18:31;;;;;;;3.33;2.30;;;;;;;;;;5055025;28;20489;-85
2022/04/19 15:20:57;;;;;;;3.03;2.17;;;;;;;;;;5060494;28;20418;-85
2022/04/19 15:23:24;;;;;;;2.83;2.00;;;;;;;;;;5061778;28;20781;-84
2022/04/19 15:25:51;;;;;;;2.80;1.90;;;;;;;;;;5062579;28;20421;-85
2022/04/19 15:28:17;;;;;;;3.00;2.13;;;;;;;;;;5060845;28;20492;-84
2022/04/19 15:30:43;;;;;;;7.43;2.77;;;;;;;;;;5061332;28;20488;-85
2022/04/19 15:33:09;;;;;;;3.23;1.60;;;;;;;;;;5061502;28;20768;-85
2022/04/19 15:35:35;;;;;;;3.63;2.23;;;;;;;;;;5061563;28;20461;-85
2022/04/19 15:38:01;;;;;;;3.03;2.40;;;;;;;;;;5062207;28;20889;-85
2022/04/19 15:40:28;;;;;;;2.63;1.83;;;;;;;;;;5061081;28;20413;-85
2022/04/19 15:42:54;;;;;;;3.97;2.20;;;;;;;;;;5061753;28;20405;-85
2022/04/19 15:45:20;;;;;;;3.20;1.70;;;;;;;;;;5067137;28;20436;-84
2022/04/19 15:47:46;;;;;;;3.40;1.97;;;;;;;;;;5075754;28;20409;-84